sensor_id;sensor_type;location;lat;lon;timestamp;P1;P2;P0
47705;PMS5003;33471;52.104;1.318;2022-09-09T00:01:37;6;6;
47705;PMS5003;33471;52.104;1.318;2022-09-09T00:04:15;10;8;
47705;PMS5003;33471;52.104;1.318;2022-09-09T00:06:53;5;5;
47705;PMS5003;33471;52.104;1.318;2022-09-09T00:09:27;13;13;
47705;PMS5003;33471;52.104;1.318;2022-09-09T00:11:58;5;4;
47705;PMS5003;33471;52.104;1.318;2022-09-09T00:14:34;7;6;
47705;PMS5003;33471;52.104;1.318;2022-09-09T00:17:09;8;8;
47705;PMS5003;33471;52.104;1.318;2022-09-09T00:19:46;6;6;
47705;PMS5003;33471;52.104;1.318;2022-09-09T00:22:23;4;4;
47705;PMS5003;33471;52.104;1.318;2022-09-09T00:24:52;7;6;
47705;PMS5003;33471;52.104;1.318;2022-09-09T00:27:23;5;4;
47705;PMS5003;33471;52.104;1.318;2022-09-09T00:29:57;4;4;
47705;PMS5003;33471;52.104;1.318;2022-09-09T00:32:40;4;4;
47705;PMS5003;33471;52.104;1.318;2022-09-09T00:35:13;2;1;
47705;PMS5003;33471;52.104;1.318;2022-09-09T00:37:46;4;3;
47705;PMS5003;33471;52.104;1.318;2022-09-09T00:40:18;6;5;
47705;PMS5003;33471;52.104;1.318;2022-09-09T00:42:52;2;2;
47705;PMS5003;33471;52.104;1.318;2022-09-09T00:45:40;6;4;
47705;PMS5003;33471;52.104;1.318;2022-09-09T00:48:22;3;3;
47705;PMS5003;33471;52.104;1.318;2022-09-09T00:51:00;4;3;
47705;PMS5003;33471;52.104;1.318;2022-09-09T00:53:36;8;4;
47705;PMS5003;33471;52.104;1.318;2022-09-09T00:56:20;3;3;
47705;PMS5003;33471;52.104;1.318;2022-09-09T00:58:59;3;3;
47705;PMS5003;33471;52.104;1.318;2022-09-09T01:01:39;4;4;
47705;PMS5003;33471;52.104;1.318;2022-09-09T01:04:07;7;6;
47705;PMS5003;33471;52.104;1.318;2022-09-09T01:06:39;4;4;
47705;PMS5003;33471;52.104;1.318;2022-09-09T01:09:10;4;4;
47705;PMS5003;33471;52.104;1.318;2022-09-09T01:11:49;5;4;
47705;PMS5003;33471;52.104;1.318;2022-09-09T01:14:27;4;4;
47705;PMS5003;33471;52.104;1.318;2022-09-09T01:17:05;6;4;
47705;PMS5003;33471;52.104;1.318;2022-09-09T01:19:40;8;6;
47705;PMS5003;33471;52.104;1.318;2022-09-09T01:22:22;5;5;
47705;PMS5003;33471;52.104;1.318;2022-09-09T01:25:19;4;4;
47705;PMS5003;33471;52.104;1.318;2022-09-09T01:27:54;6;5;
47705;PMS5003;33471;52.104;1.318;2022-09-09T01:30:25;4;4;
47705;PMS5003;33471;52.104;1.318;2022-09-09T01:32:54;4;4;
47705;PMS5003;33471;52.104;1.318;2022-09-09T01:35:29;4;4;
47705;PMS5003;33471;52.104;1.318;2022-09-09T01:38:03;5;2;
47705;PMS5003;33471;52.104;1.318;2022-09-09T01:40:31;4;3;
47705;PMS5003;33471;52.104;1.318;2022-09-09T01:42:59;2;2;
47705;PMS5003;33471;52.104;1.318;2022-09-09T01:45:26;5;4;
47705;PMS5003;33471;52.104;1.318;2022-09-09T01:47:53;4;4;
47705;PMS5003;33471;52.104;1.318;2022-09-09T01:50:20;3;3;
47705;PMS5003;33471;52.104;1.318;2022-09-09T01:52:48;5;5;
47705;PMS5003;33471;52.104;1.318;2022-09-09T01:55:20;6;5;
47705;PMS5003;33471;52.104;1.318;2022-09-09T01:58:01;5;5;
47705;PMS5003;33471;52.104;1.318;2022-09-09T02:00:44;2;2;
47705;PMS5003;33471;52.104;1.318;2022-09-09T02:03:20;4;4;
47705;PMS5003;33471;52.104;1.318;2022-09-09T02:05:53;4;4;
47705;PMS5003;33471;52.104;1.318;2022-09-09T02:08:28;4;3;
47705;PMS5003;33471;52.104;1.318;2022-09-09T02:11:07;3;3;
47705;PMS5003;33471;52.104;1.318;2022-09-09T02:13:39;3;3;
47705;PMS5003;33471;52.104;1.318;2022-09-09T02:16:08;2;2;
47705;PMS5003;33471;52.104;1.318;2022-09-09T02:18:40;3;3;
47705;PMS5003;33471;52.104;1.318;2022-09-09T02:21:11;4;4;
47705;PMS5003;33471;52.104;1.318;2022-09-09T02:23:41;8;7;
47705;PMS5003;33471;52.104;1.318;2022-09-09T02:26:10;2;2;
47705;PMS5003;33471;52.104;1.318;2022-09-09T02:28:40;7;5;
47705;PMS5003;33471;52.104;1.318;2022-09-09T02:31:08;5;2;
47705;PMS5003;33471;52.104;1.318;2022-09-09T02:33:37;3;3;
47705;PMS5003;33471;52.104;1.318;2022-09-09T02:36:09;5;4;
47705;PMS5003;33471;52.104;1.318;2022-09-09T02:38:40;8;8;
47705;PMS5003;33471;52.104;1.318;2022-09-09T02:41:12;4;4;
47705;PMS5003;33471;52.104;1.318;2022-09-09T02:43:39;3;3;
47705;PMS5003;33471;52.104;1.318;2022-09-09T02:46:08;4;4;
47705;PMS5003;33471;52.104;1.318;2022-09-09T02:48:52;5;5;
47705;PMS5003;33471;52.104;1.318;2022-09-09T02:51:27;8;6;
47705;PMS5003;33471;52.104;1.318;2022-09-09T02:54:05;4;4;
47705;PMS5003;33471;52.104;1.318;2022-09-09T02:56:39;4;4;
47705;PMS5003;33471;52.104;1.318;2022-09-09T02:59:12;5;5;
47705;PMS5003;33471;52.104;1.318;2022-09-09T03:01:40;7;6;
47705;PMS5003;33471;52.104;1.318;2022-09-09T03:04:07;5;5;
47705;PMS5003;33471;52.104;1.318;2022-09-09T03:06:34;3;3;
47705;PMS5003;33471;52.104;1.318;2022-09-09T03:09:01;9;9;
47705;PMS5003;33471;52.104;1.318;2022-09-09T03:11:28;5;5;
47705;PMS5003;33471;52.104;1.318;2022-09-09T03:13:55;3;3;
47705;PMS5003;33471;52.104;1.318;2022-09-09T03:16:23;4;4;
47705;PMS5003;33471;52.104;1.318;2022-09-09T03:18:50;4;4;
47705;PMS5003;33471;52.104;1.318;2022-09-09T03:21:18;5;5;
47705;PMS5003;33471;52.104;1.318;2022-09-09T03:23:45;5;5;
47705;PMS5003;33471;52.104;1.318;2022-09-09T03:26:12;4;4;
47705;PMS5003;33471;52.104;1.318;2022-09-09T03:28:40;5;5;
47705;PMS5003;33471;52.104;1.318;2022-09-09T03:31:07;9;7;
47705;PMS5003;33471;52.104;1.318;2022-09-09T03:33:35;3;3;
47705;PMS5003;33471;52.104;1.318;2022-09-09T03:36:03;2;2;
47705;PMS5003;33471;52.104;1.318;2022-09-09T03:38:32;8;7;
47705;PMS5003;33471;52.104;1.318;2022-09-09T03:40:59;7;4;
47705;PMS5003;33471;52.104;1.318;2022-09-09T03:43:28;5;5;
47705;PMS5003;33471;52.104;1.318;2022-09-09T03:45:55;3;3;
47705;PMS5003;33471;52.104;1.318;2022-09-09T03:48:23;6;4;
47705;PMS5003;33471;52.104;1.318;2022-09-09T03:50:52;5;4;
47705;PMS5003;33471;52.104;1.318;2022-09-09T03:53:20;4;4;
47705;PMS5003;33471;52.104;1.318;2022-09-09T03:55:50;9;6;
47705;PMS5003;33471;52.104;1.318;2022-09-09T03:58:19;11;8;
47705;PMS5003;33471;52.104;1.318;2022-09-09T04:00:52;3;3;
47705;PMS5003;33471;52.104;1.318;2022-09-09T04:03:21;4;4;
47705;PMS5003;33471;52.104;1.318;2022-09-09T04:05:49;7;7;
47705;PMS5003;33471;52.104;1.318;2022-09-09T04:08:17;11;10;
47705;PMS5003;33471;52.104;1.318;2022-09-09T04:10:44;7;6;
47705;PMS5003;33471;52.104;1.318;2022-09-09T04:13:12;10;9;
47705;PMS5003;33471;52.104;1.318;2022-09-09T04:15:41;10;10;
47705;PMS5003;33471;52.104;1.318;2022-09-09T04:18:09;6;6;
47705;PMS5003;33471;52.104;1.318;2022-09-09T04:20:38;9;8;
47705;PMS5003;33471;52.104;1.318;2022-09-09T04:23:04;7;7;
47705;PMS5003;33471;52.104;1.318;2022-09-09T04:25:32;10;8;
47705;PMS5003;33471;52.104;1.318;2022-09-09T04:27:59;12;12;
47705;PMS5003;33471;52.104;1.318;2022-09-09T04:30:26;8;6;
47705;PMS5003;33471;52.104;1.318;2022-09-09T04:32:54;12;12;
47705;PMS5003;33471;52.104;1.318;2022-09-09T04:35:21;6;6;
47705;PMS5003;33471;52.104;1.318;2022-09-09T04:37:48;10;8;
47705;PMS5003;33471;52.104;1.318;2022-09-09T04:40:15;18;15;
47705;PMS5003;33471;52.104;1.318;2022-09-09T04:42:43;10;10;
47705;PMS5003;33471;52.104;1.318;2022-09-09T04:45:10;11;11;
47705;PMS5003;33471;52.104;1.318;2022-09-09T04:47:38;8;7;
47705;PMS5003;33471;52.104;1.318;2022-09-09T04:50:06;17;15;
47705;PMS5003;33471;52.104;1.318;2022-09-09T04:52:34;21;15;
47705;PMS5003;33471;52.104;1.318;2022-09-09T04:55:02;16;16;
47705;PMS5003;33471;52.104;1.318;2022-09-09T04:57:29;14;13;
47705;PMS5003;33471;52.104;1.318;2022-09-09T04:59:57;22;22;
47705;PMS5003;33471;52.104;1.318;2022-09-09T05:02:24;19;14;
47705;PMS5003;33471;52.104;1.318;2022-09-09T05:04:51;19;18;
47705;PMS5003;33471;52.104;1.318;2022-09-09T05:07:18;16;16;
47705;PMS5003;33471;52.104;1.318;2022-09-09T05:09:45;14;14;
47705;PMS5003;33471;52.104;1.318;2022-09-09T05:12:13;15;15;
47705;PMS5003;33471;52.104;1.318;2022-09-09T05:14:40;19;15;
47705;PMS5003;33471;52.104;1.318;2022-09-09T05:17:07;16;14;
47705;PMS5003;33471;52.104;1.318;2022-09-09T05:19:34;20;19;
47705;PMS5003;33471;52.104;1.318;2022-09-09T05:22:02;14;13;
47705;PMS5003;33471;52.104;1.318;2022-09-09T05:24:30;19;15;
47705;PMS5003;33471;52.104;1.318;2022-09-09T05:26:57;18;16;
47705;PMS5003;33471;52.104;1.318;2022-09-09T05:29:25;20;17;
47705;PMS5003;33471;52.104;1.318;2022-09-09T05:31:52;20;18;
47705;PMS5003;33471;52.104;1.318;2022-09-09T05:34:20;22;20;
47705;PMS5003;33471;52.104;1.318;2022-09-09T05:36:47;23;22;
47705;PMS5003;33471;52.104;1.318;2022-09-09T05:39:14;17;17;
47705;PMS5003;33471;52.104;1.318;2022-09-09T05:41:42;22;18;
47705;PMS5003;33471;52.104;1.318;2022-09-09T05:44:08;19;18;
47705;PMS5003;33471;52.104;1.318;2022-09-09T05:46:36;21;15;
47705;PMS5003;33471;52.104;1.318;2022-09-09T05:49:04;16;15;
47705;PMS5003;33471;52.104;1.318;2022-09-09T05:51:32;14;14;
47705;PMS5003;33471;52.104;1.318;2022-09-09T05:53:59;16;16;
47705;PMS5003;33471;52.104;1.318;2022-09-09T05:56:27;16;16;
47705;PMS5003;33471;52.104;1.318;2022-09-09T05:58:55;15;15;
47705;PMS5003;33471;52.104;1.318;2022-09-09T06:01:23;22;20;
47705;PMS5003;33471;52.104;1.318;2022-09-09T06:03:52;12;12;
47705;PMS5003;33471;52.104;1.318;2022-09-09T06:06:20;15;13;
47705;PMS5003;33471;52.104;1.318;2022-09-09T06:08:50;15;13;
47705;PMS5003;33471;52.104;1.318;2022-09-09T06:11:19;12;12;
47705;PMS5003;33471;52.104;1.318;2022-09-09T06:13:47;20;19;
47705;PMS5003;33471;52.104;1.318;2022-09-09T06:16:15;18;17;
47705;PMS5003;33471;52.104;1.318;2022-09-09T06:18:44;13;13;
47705;PMS5003;33471;52.104;1.318;2022-09-09T06:21:14;21;17;
47705;PMS5003;33471;52.104;1.318;2022-09-09T06:23:43;10;10;
47705;PMS5003;33471;52.104;1.318;2022-09-09T06:26:13;11;10;
47705;PMS5003;33471;52.104;1.318;2022-09-09T06:28:42;9;9;
47705;PMS5003;33471;52.104;1.318;2022-09-09T06:31:09;12;12;
47705;PMS5003;33471;52.104;1.318;2022-09-09T06:33:39;9;8;
47705;PMS5003;33471;52.104;1.318;2022-09-09T06:36:07;11;11;
47705;PMS5003;33471;52.104;1.318;2022-09-09T06:38:38;11;10;
47705;PMS5003;33471;52.104;1.318;2022-09-09T06:41:05;20;17;
47705;PMS5003;33471;52.104;1.318;2022-09-09T06:43:33;23;17;
47705;PMS5003;33471;52.104;1.318;2022-09-09T06:46:01;12;9;
47705;PMS5003;33471;52.104;1.318;2022-09-09T06:48:29;20;15;
47705;PMS5003;33471;52.104;1.318;2022-09-09T06:51:00;13;11;
47705;PMS5003;33471;52.104;1.318;2022-09-09T06:53:28;14;14;
47705;PMS5003;33471;52.104;1.318;2022-09-09T06:55:56;13;11;
47705;PMS5003;33471;52.104;1.318;2022-09-09T06:58:23;13;13;
47705;PMS5003;33471;52.104;1.318;2022-09-09T07:00:51;18;17;
47705;PMS5003;33471;52.104;1.318;2022-09-09T07:03:18;15;13;
47705;PMS5003;33471;52.104;1.318;2022-09-09T07:05:53;11;11;
47705;PMS5003;33471;52.104;1.318;2022-09-09T07:08:21;17;15;
47705;PMS5003;33471;52.104;1.318;2022-09-09T07:10:48;12;11;
47705;PMS5003;33471;52.104;1.318;2022-09-09T07:13:16;21;16;
47705;PMS5003;33471;52.104;1.318;2022-09-09T07:15:43;15;14;
47705;PMS5003;33471;52.104;1.318;2022-09-09T07:18:10;19;13;
47705;PMS5003;33471;52.104;1.318;2022-09-09T07:20:37;15;11;
47705;PMS5003;33471;52.104;1.318;2022-09-09T07:23:04;15;15;
47705;PMS5003;33471;52.104;1.318;2022-09-09T07:25:32;19;19;
47705;PMS5003;33471;52.104;1.318;2022-09-09T07:28:03;11;11;
47705;PMS5003;33471;52.104;1.318;2022-09-09T07:30:30;12;11;
47705;PMS5003;33471;52.104;1.318;2022-09-09T07:32:58;19;17;
47705;PMS5003;33471;52.104;1.318;2022-09-09T07:35:25;18;15;
47705;PMS5003;33471;52.104;1.318;2022-09-09T07:37:52;18;17;
47705;PMS5003;33471;52.104;1.318;2022-09-09T07:40:19;15;14;
47705;PMS5003;33471;52.104;1.318;2022-09-09T07:42:46;14;12;
47705;PMS5003;33471;52.104;1.318;2022-09-09T07:45:13;11;11;
47705;PMS5003;33471;52.104;1.318;2022-09-09T07:47:41;16;12;
47705;PMS5003;33471;52.104;1.318;2022-09-09T07:50:09;16;15;
47705;PMS5003;33471;52.104;1.318;2022-09-09T07:52:37;16;15;
47705;PMS5003;33471;52.104;1.318;2022-09-09T07:55:05;18;15;
47705;PMS5003;33471;52.104;1.318;2022-09-09T07:57:32;14;12;
47705;PMS5003;33471;52.104;1.318;2022-09-09T07:59:59;17;17;
47705;PMS5003;33471;52.104;1.318;2022-09-09T08:02:26;19;14;
47705;PMS5003;33471;52.104;1.318;2022-09-09T08:04:53;21;16;
47705;PMS5003;33471;52.104;1.318;2022-09-09T08:07:21;21;20;
47705;PMS5003;33471;52.104;1.318;2022-09-09T08:09:48;14;14;
47705;PMS5003;33471;52.104;1.318;2022-09-09T08:12:16;15;15;
47705;PMS5003;33471;52.104;1.318;2022-09-09T08:14:43;13;11;
47705;PMS5003;33471;52.104;1.318;2022-09-09T08:17:11;11;11;
47705;PMS5003;33471;52.104;1.318;2022-09-09T08:19:38;19;14;
47705;PMS5003;33471;52.104;1.318;2022-09-09T08:22:05;16;16;
47705;PMS5003;33471;52.104;1.318;2022-09-09T08:24:33;14;13;
47705;PMS5003;33471;52.104;1.318;2022-09-09T08:27:00;14;14;
47705;PMS5003;33471;52.104;1.318;2022-09-09T08:29:27;15;15;
47705;PMS5003;33471;52.104;1.318;2022-09-09T08:31:55;13;12;
47705;PMS5003;33471;52.104;1.318;2022-09-09T08:34:23;18;18;
47705;PMS5003;33471;52.104;1.318;2022-09-09T08:36:51;17;14;
47705;PMS5003;33471;52.104;1.318;2022-09-09T08:39:20;16;14;
47705;PMS5003;33471;52.104;1.318;2022-09-09T08:42:56;9;9;
47705;PMS5003;33471;52.104;1.318;2022-09-09T08:45:30;15;13;
47705;PMS5003;33471;52.104;1.318;2022-09-09T08:48:07;22;21;
47705;PMS5003;33471;52.104;1.318;2022-09-09T08:50:43;15;13;
47705;PMS5003;33471;52.104;1.318;2022-09-09T08:53:15;14;13;
47705;PMS5003;33471;52.104;1.318;2022-09-09T08:55:47;21;19;
47705;PMS5003;33471;52.104;1.318;2022-09-09T08:58:17;11;11;
47705;PMS5003;33471;52.104;1.318;2022-09-09T09:00:53;15;13;
47705;PMS5003;33471;52.104;1.318;2022-09-09T09:03:35;15;14;
47705;PMS5003;33471;52.104;1.318;2022-09-09T09:06:13;13;13;
47705;PMS5003;33471;52.104;1.318;2022-09-09T09:08:51;16;13;
47705;PMS5003;33471;52.104;1.318;2022-09-09T09:11:27;16;16;
47705;PMS5003;33471;52.104;1.318;2022-09-09T09:14:01;13;13;
47705;PMS5003;33471;52.104;1.318;2022-09-09T09:16:30;18;15;
47705;PMS5003;33471;52.104;1.318;2022-09-09T09:19:07;9;9;
47705;PMS5003;33471;52.104;1.318;2022-09-09T09:21:41;11;11;
47705;PMS5003;33471;52.104;1.318;2022-09-09T09:24:12;14;14;
47705;PMS5003;33471;52.104;1.318;2022-09-09T09:26:44;29;24;
47705;PMS5003;33471;52.104;1.318;2022-09-09T09:29:13;23;19;
47705;PMS5003;33471;52.104;1.318;2022-09-09T09:31:44;20;20;
47705;PMS5003;33471;52.104;1.318;2022-09-09T09:34:14;13;13;
47705;PMS5003;33471;52.104;1.318;2022-09-09T09:36:42;17;14;
47705;PMS5003;33471;52.104;1.318;2022-09-09T09:39:22;17;17;
47705;PMS5003;33471;52.104;1.318;2022-09-09T09:41:50;9;9;
47705;PMS5003;33471;52.104;1.318;2022-09-09T09:44:22;10;10;
47705;PMS5003;33471;52.104;1.318;2022-09-09T09:46:53;8;8;
47705;PMS5003;33471;52.104;1.318;2022-09-09T09:49:32;10;10;
47705;PMS5003;33471;52.104;1.318;2022-09-09T09:52:00;9;8;
47705;PMS5003;33471;52.104;1.318;2022-09-09T09:54:28;19;19;
47705;PMS5003;33471;52.104;1.318;2022-09-09T09:57:07;35;31;
47705;PMS5003;33471;52.104;1.318;2022-09-09T09:59:37;31;31;
47705;PMS5003;33471;52.104;1.318;2022-09-09T10:02:13;31;30;
47705;PMS5003;33471;52.104;1.318;2022-09-09T10:04:42;32;30;
47705;PMS5003;33471;52.104;1.318;2022-09-09T10:07:10;27;26;
47705;PMS5003;33471;52.104;1.318;2022-09-09T10:09:38;20;18;
47705;PMS5003;33471;52.104;1.318;2022-09-09T10:12:07;25;25;
47705;PMS5003;33471;52.104;1.318;2022-09-09T10:14:49;23;21;
47705;PMS5003;33471;52.104;1.318;2022-09-09T10:17:31;15;13;
47705;PMS5003;33471;52.104;1.318;2022-09-09T10:20:12;20;16;
47705;PMS5003;33471;52.104;1.318;2022-09-09T10:22:52;21;20;
47705;PMS5003;33471;52.104;1.318;2022-09-09T10:25:31;11;11;
47705;PMS5003;33471;52.104;1.318;2022-09-09T10:28:10;11;9;
47705;PMS5003;33471;52.104;1.318;2022-09-09T10:30:54;19;19;
47705;PMS5003;33471;52.104;1.318;2022-09-09T10:33:36;20;19;
47705;PMS5003;33471;52.104;1.318;2022-09-09T10:36:13;17;14;
47705;PMS5003;33471;52.104;1.318;2022-09-09T10:38:45;18;17;
47705;PMS5003;33471;52.104;1.318;2022-09-09T10:41:16;21;21;
47705;PMS5003;33471;52.104;1.318;2022-09-09T10:44:05;20;18;
47705;PMS5003;33471;52.104;1.318;2022-09-09T10:46:48;19;16;
47705;PMS5003;33471;52.104;1.318;2022-09-09T10:49:35;19;15;
47705;PMS5003;33471;52.104;1.318;2022-09-09T10:52:21;13;11;
47705;PMS5003;33471;52.104;1.318;2022-09-09T10:54:56;18;14;
47705;PMS5003;33471;52.104;1.318;2022-09-09T10:57:31;18;16;
47705;PMS5003;33471;52.104;1.318;2022-09-09T11:00:04;16;15;
47705;PMS5003;33471;52.104;1.318;2022-09-09T11:02:34;17;12;
47705;PMS5003;33471;52.104;1.318;2022-09-09T11:05:02;11;10;
47705;PMS5003;33471;52.104;1.318;2022-09-09T11:07:34;10;10;
47705;PMS5003;33471;52.104;1.318;2022-09-09T11:10:07;7;6;
47705;PMS5003;33471;52.104;1.318;2022-09-09T11:12:49;8;8;
47705;PMS5003;33471;52.104;1.318;2022-09-09T11:15:20;17;16;
47705;PMS5003;33471;52.104;1.318;2022-09-09T11:17:56;14;12;
47705;PMS5003;33471;52.104;1.318;2022-09-09T11:20:28;36;33;
47705;PMS5003;33471;52.104;1.318;2022-09-09T11:22:57;63;60;
47705;PMS5003;33471;52.104;1.318;2022-09-09T11:25:29;83;75;
47705;PMS5003;33471;52.104;1.318;2022-09-09T11:28:06;54;48;
47705;PMS5003;33471;52.104;1.318;2022-09-09T11:30:56;20;20;
47705;PMS5003;33471;52.104;1.318;2022-09-09T11:33:41;16;16;
47705;PMS5003;33471;52.104;1.318;2022-09-09T11:36:26;36;33;
47705;PMS5003;33471;52.104;1.318;2022-09-09T11:39:09;31;28;
47705;PMS5003;33471;52.104;1.318;2022-09-09T11:41:53;37;37;
47705;PMS5003;33471;52.104;1.318;2022-09-09T11:44:31;22;20;
47705;PMS5003;33471;52.104;1.318;2022-09-09T11:46:59;23;22;
47705;PMS5003;33471;52.104;1.318;2022-09-09T11:49:27;31;29;
47705;PMS5003;33471;52.104;1.318;2022-09-09T11:51:56;18;18;
47705;PMS5003;33471;52.104;1.318;2022-09-09T11:54:28;29;25;
47705;PMS5003;33471;52.104;1.318;2022-09-09T11:56:56;22;20;
47705;PMS5003;33471;52.104;1.318;2022-09-09T11:59:25;20;20;
47705;PMS5003;33471;52.104;1.318;2022-09-09T12:01:55;15;15;
47705;PMS5003;33471;52.104;1.318;2022-09-09T12:04:39;19;16;
47705;PMS5003;33471;52.104;1.318;2022-09-09T12:07:25;23;23;
47705;PMS5003;33471;52.104;1.318;2022-09-09T12:09:58;17;17;
47705;PMS5003;33471;52.104;1.318;2022-09-09T12:12:30;26;23;
47705;PMS5003;33471;52.104;1.318;2022-09-09T12:15:01;23;23;
47705;PMS5003;33471;52.104;1.318;2022-09-09T12:17:44;22;18;
47705;PMS5003;33471;52.104;1.318;2022-09-09T12:20:13;21;19;
47705;PMS5003;33471;52.104;1.318;2022-09-09T12:22:45;29;26;
47705;PMS5003;33471;52.104;1.318;2022-09-09T12:25:26;24;23;
47705;PMS5003;33471;52.104;1.318;2022-09-09T12:28:03;17;15;
47705;PMS5003;33471;52.104;1.318;2022-09-09T12:30:37;22;21;
47705;PMS5003;33471;52.104;1.318;2022-09-09T12:33:16;23;20;
47705;PMS5003;33471;52.104;1.318;2022-09-09T12:35:45;15;15;
47705;PMS5003;33471;52.104;1.318;2022-09-09T12:38:21;19;19;
47705;PMS5003;33471;52.104;1.318;2022-09-09T12:40:57;20;16;
47705;PMS5003;33471;52.104;1.318;2022-09-09T12:43:25;13;12;
47705;PMS5003;33471;52.104;1.318;2022-09-09T12:45:54;12;11;
47705;PMS5003;33471;52.104;1.318;2022-09-09T12:48:27;13;12;
47705;PMS5003;33471;52.104;1.318;2022-09-09T12:50:58;11;11;
47705;PMS5003;33471;52.104;1.318;2022-09-09T12:53:26;17;16;
47705;PMS5003;33471;52.104;1.318;2022-09-09T12:55:57;14;11;
47705;PMS5003;33471;52.104;1.318;2022-09-09T12:58:27;19;19;
47705;PMS5003;33471;52.104;1.318;2022-09-09T13:00:56;18;18;
47705;PMS5003;33471;52.104;1.318;2022-09-09T13:03:24;15;14;
47705;PMS5003;33471;52.104;1.318;2022-09-09T13:05:51;20;18;
47705;PMS5003;33471;52.104;1.318;2022-09-09T13:08:19;18;18;
47705;PMS5003;33471;52.104;1.318;2022-09-09T13:10:48;20;17;
47705;PMS5003;33471;52.104;1.318;2022-09-09T13:13:17;13;12;
47705;PMS5003;33471;52.104;1.318;2022-09-09T13:15:49;11;11;
47705;PMS5003;33471;52.104;1.318;2022-09-09T13:18:19;17;15;
47705;PMS5003;33471;52.104;1.318;2022-09-09T13:20:50;14;12;
47705;PMS5003;33471;52.104;1.318;2022-09-09T13:23:18;16;15;
47705;PMS5003;33471;52.104;1.318;2022-09-09T13:25:55;14;13;
47705;PMS5003;33471;52.104;1.318;2022-09-09T13:28:24;11;10;
47705;PMS5003;33471;52.104;1.318;2022-09-09T13:30:56;14;14;
47705;PMS5003;33471;52.104;1.318;2022-09-09T13:33:29;12;9;
47705;PMS5003;33471;52.104;1.318;2022-09-09T13:35:58;18;13;
47705;PMS5003;33471;52.104;1.318;2022-09-09T13:38:27;15;14;
47705;PMS5003;33471;52.104;1.318;2022-09-09T13:40:58;21;21;
47705;PMS5003;33471;52.104;1.318;2022-09-09T13:43:26;19;18;
47705;PMS5003;33471;52.104;1.318;2022-09-09T13:45:57;19;18;
47705;PMS5003;33471;52.104;1.318;2022-09-09T13:48:25;25;25;
47705;PMS5003;33471;52.104;1.318;2022-09-09T13:50:55;27;27;
47705;PMS5003;33471;52.104;1.318;2022-09-09T13:53:23;22;20;
47705;PMS5003;33471;52.104;1.318;2022-09-09T13:55:51;23;23;
47705;PMS5003;33471;52.104;1.318;2022-09-09T13:58:19;15;14;
47705;PMS5003;33471;52.104;1.318;2022-09-09T14:00:46;19;16;
47705;PMS5003;33471;52.104;1.318;2022-09-09T14:03:14;15;15;
47705;PMS5003;33471;52.104;1.318;2022-09-09T14:05:42;17;15;
47705;PMS5003;33471;52.104;1.318;2022-09-09T14:08:15;20;19;
47705;PMS5003;33471;52.104;1.318;2022-09-09T14:10:52;8;8;
47705;PMS5003;33471;52.104;1.318;2022-09-09T14:13:19;15;13;
47705;PMS5003;33471;52.104;1.318;2022-09-09T14:15:47;11;10;
47705;PMS5003;33471;52.104;1.318;2022-09-09T14:18:15;9;9;
47705;PMS5003;33471;52.104;1.318;2022-09-09T14:20:44;11;11;
47705;PMS5003;33471;52.104;1.318;2022-09-09T14:23:12;9;9;
47705;PMS5003;33471;52.104;1.318;2022-09-09T14:25:40;10;9;
47705;PMS5003;33471;52.104;1.318;2022-09-09T14:28:10;10;10;
47705;PMS5003;33471;52.104;1.318;2022-09-09T14:30:40;7;7;
47705;PMS5003;33471;52.104;1.318;2022-09-09T14:33:09;11;11;
47705;PMS5003;33471;52.104;1.318;2022-09-09T14:35:40;9;9;
47705;PMS5003;33471;52.104;1.318;2022-09-09T14:38:08;6;6;
47705;PMS5003;33471;52.104;1.318;2022-09-09T14:40:36;7;7;
47705;PMS5003;33471;52.104;1.318;2022-09-09T14:43:04;6;6;
47705;PMS5003;33471;52.104;1.318;2022-09-09T14:45:32;9;7;
47705;PMS5003;33471;52.104;1.318;2022-09-09T14:48:03;9;7;
47705;PMS5003;33471;52.104;1.318;2022-09-09T14:50:30;8;7;
47705;PMS5003;33471;52.104;1.318;2022-09-09T14:52:57;11;11;
47705;PMS5003;33471;52.104;1.318;2022-09-09T14:55:24;8;6;
47705;PMS5003;33471;52.104;1.318;2022-09-09T14:57:51;10;7;
47705;PMS5003;33471;52.104;1.318;2022-09-09T15:00:18;8;7;
47705;PMS5003;33471;52.104;1.318;2022-09-09T15:02:45;8;8;
47705;PMS5003;33471;52.104;1.318;2022-09-09T15:05:12;7;5;
47705;PMS5003;33471;52.104;1.318;2022-09-09T15:07:40;6;6;
47705;PMS5003;33471;52.104;1.318;2022-09-09T15:10:08;7;7;
47705;PMS5003;33471;52.104;1.318;2022-09-09T15:12:35;13;13;
47705;PMS5003;33471;52.104;1.318;2022-09-09T15:15:03;8;8;
47705;PMS5003;33471;52.104;1.318;2022-09-09T15:17:31;9;9;
47705;PMS5003;33471;52.104;1.318;2022-09-09T15:19:59;10;9;
47705;PMS5003;33471;52.104;1.318;2022-09-09T15:22:26;13;13;
47705;PMS5003;33471;52.104;1.318;2022-09-09T15:24:53;9;9;
47705;PMS5003;33471;52.104;1.318;2022-09-09T15:27:20;7;7;
47705;PMS5003;33471;52.104;1.318;2022-09-09T15:29:47;10;10;
47705;PMS5003;33471;52.104;1.318;2022-09-09T15:32:15;9;9;
47705;PMS5003;33471;52.104;1.318;2022-09-09T15:34:42;16;16;
47705;PMS5003;33471;52.104;1.318;2022-09-09T15:37:09;10;10;
47705;PMS5003;33471;52.104;1.318;2022-09-09T15:39:38;16;14;
47705;PMS5003;33471;52.104;1.318;2022-09-09T15:42:05;19;14;
47705;PMS5003;33471;52.104;1.318;2022-09-09T15:44:38;13;12;
47705;PMS5003;33471;52.104;1.318;2022-09-09T15:47:06;11;10;
47705;PMS5003;33471;52.104;1.318;2022-09-09T15:49:33;18;18;
47705;PMS5003;33471;52.104;1.318;2022-09-09T15:52:01;14;11;
47705;PMS5003;33471;52.104;1.318;2022-09-09T15:54:31;15;11;
47705;PMS5003;33471;52.104;1.318;2022-09-09T15:57:00;11;10;
47705;PMS5003;33471;52.104;1.318;2022-09-09T15:59:31;10;10;
47705;PMS5003;33471;52.104;1.318;2022-09-09T16:01:59;15;15;
47705;PMS5003;33471;52.104;1.318;2022-09-09T16:04:27;13;13;
47705;PMS5003;33471;52.104;1.318;2022-09-09T16:06:56;12;11;
47705;PMS5003;33471;52.104;1.318;2022-09-09T16:09:25;13;12;
47705;PMS5003;33471;52.104;1.318;2022-09-09T16:11:52;18;15;
47705;PMS5003;33471;52.104;1.318;2022-09-09T16:14:22;18;18;
47705;PMS5003;33471;52.104;1.318;2022-09-09T16:16:49;13;13;
47705;PMS5003;33471;52.104;1.318;2022-09-09T16:19:16;13;13;
47705;PMS5003;33471;52.104;1.318;2022-09-09T16:21:45;12;12;
47705;PMS5003;33471;52.104;1.318;2022-09-09T16:24:14;18;17;
47705;PMS5003;33471;52.104;1.318;2022-09-09T16:26:44;20;20;
47705;PMS5003;33471;52.104;1.318;2022-09-09T16:29:12;13;12;
47705;PMS5003;33471;52.104;1.318;2022-09-09T16:31:42;13;13;
47705;PMS5003;33471;52.104;1.318;2022-09-09T16:34:10;14;12;
47705;PMS5003;33471;52.104;1.318;2022-09-09T16:36:39;16;14;
47705;PMS5003;33471;52.104;1.318;2022-09-09T16:39:09;14;12;
47705;PMS5003;33471;52.104;1.318;2022-09-09T16:41:38;13;13;
47705;PMS5003;33471;52.104;1.318;2022-09-09T16:44:06;14;13;
47705;PMS5003;33471;52.104;1.318;2022-09-09T16:46:36;12;12;
47705;PMS5003;33471;52.104;1.318;2022-09-09T16:49:05;17;13;
47705;PMS5003;33471;52.104;1.318;2022-09-09T16:51:35;19;19;
47705;PMS5003;33471;52.104;1.318;2022-09-09T16:54:04;16;16;